Time;durP1;ratioP1;P1;durP2;ratioP2;P2;SDS_P1;SDS_P2;PMS_P1;PMS_P2;Temp;Humidity;BMP_temperature;BMP_pressure;BME280_temperature;BME280_humidity;BME280_pressure;Samples;Min_cycle;Max_cycle;Signal;HPM_P1;HPM_P2
2024/04/18 00:01:56;;;;;;;0.50;0.50;;;10.10;92.30;;;;;;5375660;26;20830;-68
2024/04/18 00:04:25;;;;;;;0.77;0.77;;;10.10;92.30;;;;;;5375835;26;20248;-67
2024/04/18 00:06:59;;;;;;;0.90;0.90;;;10.10;92.10;;;;;;5373986;26;20231;-67
2024/04/18 00:09:28;;;;;;;0.70;0.70;;;10.00;92.10;;;;;;5373585;26;20248;-66
2024/04/18 00:11:54;;;;;;;0.50;0.50;;;10.00;92.20;;;;;;5377182;26;20233;-68
2024/04/18 00:14:22;;;;;;;0.83;0.70;;;10.00;92.20;;;;;;5373961;26;20647;-67
2024/04/18 00:16:51;;;;;;;0.83;0.83;;;10.00;92.20;;;;;;5369434;26;20252;-67
2024/04/18 00:19:20;;;;;;;0.60;0.60;;;10.00;92.20;;;;;;5362168;26;20239;-67
2024/04/18 00:21:55;;;;;;;0.67;0.67;;;10.00;92.10;;;;;;5376112;26;20243;-67
2024/04/18 00:24:31;;;;;;;0.70;0.70;;;10.00;92.00;;;;;;5372593;26;20244;-67
2024/04/18 00:26:57;;;;;;;0.60;0.60;;;10.00;92.00;;;;;;5375403;26;20244;-67
2024/04/18 00:29:36;;;;;;;0.50;0.50;;;10.00;91.90;;;;;;5378670;26;20236;-67
2024/04/18 00:32:11;;;;;;;0.50;0.50;;;10.10;91.80;;;;;;5374719;26;20752;-67
2024/04/18 00:34:40;;;;;;;1.00;0.87;;;10.10;91.70;;;;;;5365682;26;20674;-68
2024/04/18 00:37:06;;;;;;;0.50;0.50;;;10.10;91.70;;;;;;5374189;26;20235;-67
2024/04/18 00:39:54;;;;;;;1.00;1.00;;;10.10;91.80;;;;;;5376365;26;20660;-67
2024/04/18 00:42:35;;;;;;;0.70;0.70;;;10.00;91.80;;;;;;5377999;26;20291;-67
2024/04/18 00:45:07;;;;;;;0.60;0.60;;;10.00;91.90;;;;;;5372212;26;20814;-68
2024/04/18 00:47:46;;;;;;;1.10;0.80;;;10.00;92.00;;;;;;5376618;26;20271;-67
2024/04/18 00:50:18;;;;;;;0.70;0.70;;;10.00;92.00;;;;;;5377146;26;20303;-67
2024/04/18 00:52:45;;;;;;;0.70;0.70;;;10.00;92.00;;;;;;5354347;26;20232;-67
2024/04/18 00:55:31;;;;;;;0.50;0.50;;;10.00;92.10;;;;;;5376287;26;20286;-66
2024/04/18 00:58:10;;;;;;;0.50;0.50;;;10.00;92.00;;;;;;5358189;26;20288;-66
2024/04/18 01:00:47;;;;;;;0.50;0.50;;;10.10;92.10;;;;;;5374184;26;20245;-67
2024/04/18 01:03:34;;;;;;;0.60;0.60;;;10.10;92.10;;;;;;5369880;26;20704;-67
2024/04/18 01:06:10;;;;;;;0.60;0.60;;;10.10;92.40;;;;;;5375442;26;20245;-66
2024/04/18 01:08:55;;;;;;;0.70;0.60;;;10.10;92.10;;;;;;5374153;26;20279;-65
2024/04/18 01:11:33;;;;;;;0.90;0.90;;;10.10;92.10;;;;;;5376403;26;20310;-65
2024/04/18 01:14:06;;;;;;;0.80;0.80;;;10.10;92.20;;;;;;5373343;26;20254;-66
2024/04/18 01:16:55;;;;;;;0.60;0.60;;;10.10;92.30;;;;;;5359416;26;21445;-66
2024/04/18 01:19:24;;;;;;;0.50;0.50;;;10.10;92.30;;;;;;5373339;26;20568;-66
2024/04/18 01:21:53;;;;;;;0.93;0.40;;;10.20;92.40;;;;;;5372875;26;20263;-67
2024/04/18 01:24:22;;;;;;;0.60;0.60;;;10.20;92.50;;;;;;5375875;26;20244;-67
2024/04/18 01:26:51;;;;;;;0.70;0.70;;;10.20;92.60;;;;;;5374483;26;20234;-68
2024/04/18 01:29:20;;;;;;;0.70;0.70;;;10.20;92.60;;;;;;5375564;26;20649;-68
2024/04/18 01:32:04;;;;;;;1.33;0.90;;;10.20;92.70;;;;;;5370376;26;20274;-67
2024/04/18 01:34:33;;;;;;;0.93;0.83;;;10.20;92.80;;;;;;5371849;26;20269;-67
2024/04/18 01:37:14;;;;;;;0.70;0.70;;;10.20;92.90;;;;;;5374250;26;20383;-66
2024/04/18 01:39:44;;;;;;;0.57;0.57;;;10.20;93.00;;;;;;5370123;26;20300;-67
2024/04/18 01:42:13;;;;;;;0.67;0.67;;;10.20;93.10;;;;;;5376385;26;20268;-68
2024/04/18 01:44:45;;;;;;;0.73;0.73;;;10.20;93.10;;;;;;5374860;26;20249;-67
2024/04/18 01:47:29;;;;;;;0.80;0.80;;;10.20;93.20;;;;;;5369263;26;20797;-67
2024/04/18 01:50:10;;;;;;;0.83;0.83;;;10.20;93.20;;;;;;5379431;26;20286;-67
2024/04/18 01:52:40;;;;;;;0.77;0.77;;;10.20;93.20;;;;;;5378638;26;20355;-68
2024/04/18 01:55:07;;;;;;;0.90;0.90;;;10.20;93.30;;;;;;5379644;26;20233;-68
2024/04/18 01:57:43;;;;;;;0.90;0.90;;;10.20;93.30;;;;;;5378258;26;20238;-67
2024/04/18 02:00:27;;;;;;;0.83;0.83;;;10.20;93.40;;;;;;5378271;26;20309;-67
2024/04/18 02:02:56;;;;;;;0.80;0.80;;;10.20;93.40;;;;;;5377340;26;20272;-67
2024/04/18 02:05:42;;;;;;;0.77;0.77;;;10.20;93.50;;;;;;5358189;26;20270;-66
2024/04/18 02:08:17;;;;;;;0.70;0.70;;;10.20;93.50;;;;;;5376370;26;20308;-67
2024/04/18 02:10:44;;;;;;;1.00;1.00;;;10.20;93.50;;;;;;5376040;26;20241;-67
2024/04/18 02:13:36;;;;;;;1.07;1.07;;;10.20;93.50;;;;;;5378330;26;20238;-67
2024/04/18 02:16:04;;;;;;;0.80;0.80;;;10.30;93.50;;;;;;5373659;26;20612;-67
2024/04/18 02:18:51;;;;;;;1.13;1.10;;;10.20;93.50;;;;;;5372432;26;20648;-67
2024/04/18 02:21:17;;;;;;;1.10;0.90;;;10.20;93.50;;;;;;5372897;26;20244;-67
2024/04/18 02:23:55;;;;;;;0.63;0.63;;;10.20;93.50;;;;;;5363741;26;20322;-67
2024/04/18 02:26:21;;;;;;;0.70;0.70;;;10.20;93.60;;;;;;5376852;26;20259;-67
2024/04/18 02:28:53;;;;;;;0.90;0.90;;;10.20;93.60;;;;;;5378000;26;20279;-67
2024/04/18 02:31:19;;;;;;;0.80;0.80;;;10.20;93.60;;;;;;5370563;26;20582;-67
2024/04/18 02:33:54;;;;;;;0.70;0.70;;;10.20;93.60;;;;;;5360499;26;20593;-67
2024/04/18 02:36:20;;;;;;;0.80;0.80;;;10.20;93.60;;;;;;5363935;26;20281;-67
2024/04/18 02:38:49;;;;;;;0.80;0.80;;;10.20;93.70;;;;;;5374986;26;20248;-67
2024/04/18 02:41:15;;;;;;;0.90;0.90;;;10.20;93.80;;;;;;5377189;26;20335;-67
2024/04/18 02:43:53;;;;;;;1.00;0.90;;;10.10;93.80;;;;;;5376000;26;20318;-68
2024/04/18 02:46:20;;;;;;;1.17;0.77;;;10.10;93.80;;;;;;5361060;26;20261;-66
2024/04/18 02:49:07;;;;;;;1.33;1.23;;;10.10;93.90;;;;;;5375326;26;20267;-67
2024/04/18 02:51:33;;;;;;;1.47;1.10;;;10.10;94.00;;;;;;5370517;26;20300;-66
2024/04/18 02:54:14;;;;;;;0.97;0.87;;;10.10;94.10;;;;;;5374152;26;20262;-66
2024/04/18 02:56:40;;;;;;;0.80;0.80;;;10.00;94.10;;;;;;5376703;26;20230;-67
2024/04/18 02:59:17;;;;;;;1.00;1.00;;;10.00;94.20;;;;;;5377660;26;20529;-67
2024/04/18 03:01:50;;;;;;;0.80;0.80;;;10.00;94.30;;;;;;5373221;26;20251;-66
2024/04/18 03:04:20;;;;;;;0.83;0.83;;;10.00;94.30;;;;;;5375596;26;20240;-66
2024/04/18 03:06:47;;;;;;;0.80;0.80;;;10.00;94.40;;;;;;5376533;26;20232;-67
2024/04/18 03:09:16;;;;;;;0.87;0.87;;;10.00;94.40;;;;;;5376122;26;20240;-66
2024/04/18 03:11:52;;;;;;;0.90;0.90;;;10.00;94.40;;;;;;5377394;26;20243;-67
2024/04/18 03:14:23;;;;;;;0.80;0.80;;;10.00;94.30;;;;;;5378996;26;20280;-67
2024/04/18 03:17:05;;;;;;;0.90;0.90;;;10.00;94.30;;;;;;5370676;26;20240;-67
2024/04/18 03:19:53;;;;;;;0.93;0.93;;;9.90;94.80;;;;;;5375749;26;20248;-66
2024/04/18 03:22:26;;;;;;;0.80;0.80;;;9.90;94.80;;;;;;5377603;26;20370;-67
2024/04/18 03:25:00;;;;;;;1.20;1.10;;;9.90;94.70;;;;;;5378795;26;20305;-66
2024/04/18 03:27:27;;;;;;;4.33;1.80;;;9.80;94.50;;;;;;5372489;26;20699;-67
2024/04/18 03:29:58;;;;;;;1.37;1.20;;;9.70;94.20;;;;;;5370242;26;20727;-67
2024/04/18 03:32:33;;;;;;;1.10;1.10;;;9.60;94.30;;;;;;5374860;26;20247;-67
2024/04/18 03:35:02;;;;;;;1.37;1.00;;;9.60;94.30;;;;;;5374693;26;20713;-67
2024/04/18 03:37:31;;;;;;;2.47;1.30;;;9.50;94.30;;;;;;5378335;26;20652;-67
2024/04/18 03:39:59;;;;;;;2.30;1.20;;;9.50;94.30;;;;;;5375966;26;20235;-67
2024/04/18 03:42:28;;;;;;;3.77;1.50;;;9.40;94.20;;;;;;5369229;26;20661;-67
2024/04/18 03:44:59;;;;;;;1.40;1.30;;;9.30;94.20;;;;;;5373791;26;20911;-67
2024/04/18 03:47:29;;;;;;;0.80;0.80;;;9.30;94.30;;;;;;5377535;26;20278;-66
2024/04/18 03:50:10;;;;;;;2.20;1.30;;;9.30;94.30;;;;;;5375293;26;20306;-67
2024/04/18 03:52:37;;;;;;;1.20;1.10;;;9.30;94.30;;;;;;5376565;26;20296;-67
2024/04/18 03:55:28;;;;;;;0.90;0.90;;;9.20;94.30;;;;;;5377175;26;20329;-66
2024/04/18 03:57:55;;;;;;;2.57;1.00;;;9.40;94.40;;;;;;5374758;26;20771;-67
2024/04/18 04:00:45;;;;;;;1.67;1.57;;;9.30;94.40;;;;;;5350730;26;20617;-67
2024/04/18 04:03:11;;;;;;;1.10;1.03;;;9.20;94.50;;;;;;5376408;26;20757;-67
2024/04/18 04:05:40;;;;;;;1.17;1.13;;;9.20;94.60;;;;;;5378309;26;20479;-67
2024/04/18 04:08:06;;;;;;;2.67;1.20;;;9.20;94.70;;;;;;5377150;26;20267;-67
2024/04/18 04:10:41;;;;;;;1.43;1.07;;;9.20;94.70;;;;;;5377914;26;20733;-66
2024/04/18 04:13:07;;;;;;;1.37;1.20;;;9.20;94.80;;;;;;5358149;26;20292;-66
2024/04/18 04:15:49;;;;;;;1.10;1.10;;;9.20;95.00;;;;;;5364203;26;20236;-66
2024/04/18 04:18:34;;;;;;;2.20;1.43;;;9.10;95.10;;;;;;5361685;26;20281;-67
2024/04/18 04:21:18;;;;;;;2.17;1.33;;;9.10;95.30;;;;;;5377450;26;20745;-67
2024/04/18 04:23:45;;;;;;;1.17;1.07;;;9.00;95.30;;;;;;5376146;26;20236;-67
2024/04/18 04:26:14;;;;;;;1.03;1.03;;;8.90;95.30;;;;;;5369434;26;20290;-67
2024/04/18 04:28:40;;;;;;;1.43;1.10;;;8.90;95.30;;;;;;5375071;26;20277;-68
2024/04/18 04:31:11;;;;;;;0.90;0.90;;;8.90;95.30;;;;;;5368219;26;20251;-67
2024/04/18 04:33:37;;;;;;;0.77;0.77;;;8.90;95.30;;;;;;5377151;26;20239;-68
2024/04/18 04:36:06;;;;;;;0.83;0.83;;;9.00;95.30;;;;;;5372241;26;20244;-66
2024/04/18 04:38:33;;;;;;;1.13;0.90;;;9.00;95.30;;;;;;5377069;26;20343;-67
2024/04/18 04:41:01;;;;;;;1.70;0.83;;;8.80;95.30;;;;;;5377665;26;20307;-67
2024/04/18 04:43:27;;;;;;;1.70;1.20;;;9.00;95.60;;;;;;5372666;26;20603;-67
2024/04/18 04:45:57;;;;;;;1.50;0.93;;;8.90;96.10;;;;;;5374216;26;20239;-67
2024/04/18 04:48:37;;;;;;;1.67;1.20;;;8.90;96.20;;;;;;5372407;26;20292;-68
2024/04/18 04:51:12;;;;;;;0.90;0.90;;;8.90;96.30;;;;;;5363868;26;20710;-67
2024/04/18 04:53:38;;;;;;;4.37;1.40;;;8.90;96.40;;;;;;5371837;26;20239;-67
2024/04/18 04:56:07;;;;;;;1.43;1.30;;;9.00;96.60;;;;;;5368084;26;20283;-68
2024/04/18 04:58:33;;;;;;;1.30;1.20;;;9.00;96.60;;;;;;5367298;26;20228;-66
2024/04/18 05:01:02;;;;;;;1.83;1.30;;;9.00;96.60;;;;;;5376349;26;20244;-66
2024/04/18 05:03:40;;;;;;;2.00;1.63;;;9.00;96.60;;;;;;5361142;26;20251;-66
2024/04/18 05:06:26;;;;;;;1.57;1.20;;;9.00;96.50;;;;;;5373542;26;20244;-67
2024/04/18 05:09:14;;;;;;;1.93;1.53;;;9.00;96.50;;;;;;5361790;26;20239;-67
2024/04/18 05:11:43;;;;;;;1.30;1.20;;;9.10;96.50;;;;;;5351320;26;20246;-67
2024/04/18 05:14:28;;;;;;;1.50;1.40;;;9.10;96.50;;;;;;5371166;26;20289;-67
2024/04/18 05:16:57;;;;;;;2.77;1.80;;;9.10;96.40;;;;;;5358470;26;20329;-66
2024/04/18 05:19:25;;;;;;;2.03;1.47;;;9.10;96.10;;;;;;5399117;26;20265;-66
2024/04/18 05:21:54;;;;;;;2.23;1.33;;;9.00;96.00;;;;;;5378792;26;20277;-66
2024/04/18 05:24:33;;;;;;;2.87;1.70;;;9.10;96.00;;;;;;5379827;26;20776;-68
2024/04/18 05:27:02;;;;;;;1.30;1.20;;;9.20;95.80;;;;;;5374914;26;20273;-68
2024/04/18 05:32:15;;;;;;;3.03;1.70;;;9.10;95.70;;;;;;5378056;26;20234;-66
2024/04/18 05:35:07;;;;;;;3.20;1.40;;;9.00;95.50;;;;;;5356657;26;20238;-68
2024/04/18 05:37:36;;;;;;;3.13;1.70;;;9.10;95.60;;;;;;5380116;26;20251;-67
2024/04/18 05:40:05;;;;;;;4.93;1.50;;;9.10;95.50;;;;;;5380326;26;20232;-67
2024/04/18 05:42:34;;;;;;;1.53;1.40;;;9.10;95.50;;;;;;5371138;26;20244;-67
2024/04/18 05:45:12;;;;;;;1.87;1.70;;;9.00;95.50;;;;;;5368452;26;20263;-67
2024/04/18 05:47:59;;;;;;;3.90;1.60;;;9.00;95.60;;;;;;5376672;26;20342;-68
2024/04/18 05:50:31;;;;;;;2.00;1.30;;;8.90;95.70;;;;;;5373906;26;20247;-67
2024/04/18 05:53:00;;;;;;;1.23;1.10;;;9.00;95.80;;;;;;5365584;26;20622;-66
2024/04/18 05:55:49;;;;;;;0.90;0.90;;;9.00;95.80;;;;;;5366774;26;20575;-67
2024/04/18 05:58:18;;;;;;;0.80;0.80;;;9.10;95.80;;;;;;5374676;26;20572;-66
2024/04/18 06:00:56;;;;;;;1.43;1.00;;;9.20;95.70;;;;;;5378637;26;20422;-66
2024/04/18 06:03:25;;;;;;;2.50;1.10;;;9.30;95.70;;;;;;5375389;26;20291;-67
2024/04/18 06:05:58;;;;;;;1.57;1.27;;;9.30;95.60;;;;;;5363428;26;20258;-67
2024/04/18 06:08:28;;;;;;;1.37;1.27;;;9.20;95.60;;;;;;5372875;26;20548;-67
2024/04/18 06:10:56;;;;;;;3.73;2.00;;;9.30;95.60;;;;;;5370942;26;20704;-67
2024/04/18 06:13:27;;;;;;;3.43;1.70;;;9.30;95.60;;;;;;5373881;26;20320;-67
2024/04/18 06:15:56;;;;;;;1.50;1.40;;;9.40;95.70;;;;;;5373399;26;20827;-67
2024/04/18 06:18:26;;;;;;;3.17;1.60;;;9.40;95.80;;;;;;5375350;26;20368;-67
2024/04/18 06:20:57;;;;;;;2.00;1.63;;;9.50;95.80;;;;;;5372016;26;20239;-67
2024/04/18 06:23:26;;;;;;;1.47;1.37;;;9.50;95.70;;;;;;5371418;26;20413;-66
2024/04/18 06:26:14;;;;;;;1.40;1.10;;;9.40;95.60;;;;;;5374783;26;20715;-68
2024/04/18 06:28:43;;;;;;;0.90;0.90;;;9.40;95.60;;;;;;5358877;26;20237;-67
2024/04/18 06:31:13;;;;;;;0.87;0.87;;;9.40;95.60;;;;;;5370750;26;20236;-67
2024/04/18 06:33:42;;;;;;;3.57;1.60;;;9.50;95.60;;;;;;5375177;26;20278;-67
2024/04/18 06:36:13;;;;;;;1.77;1.00;;;9.50;95.70;;;;;;5367748;26;20273;-67
2024/04/18 06:38:42;;;;;;;1.20;1.10;;;9.50;95.80;;;;;;5370616;26;20571;-67
2024/04/18 06:41:11;;;;;;;1.13;1.03;;;9.60;95.70;;;;;;5376988;26;20568;-67
2024/04/18 06:43:43;;;;;;;1.30;1.20;;;9.60;95.80;;;;;;5375259;26;20275;-66
2024/04/18 06:46:12;;;;;;;1.30;1.20;;;9.70;95.80;;;;;;5368866;26;20247;-67
2024/04/18 06:48:40;;;;;;;1.47;1.27;;;9.70;95.80;;;;;;5363103;26;20258;-67
2024/04/18 06:51:10;;;;;;;1.73;1.00;;;9.70;95.80;;;;;;5367401;26;20275;-66
2024/04/18 06:53:41;;;;;;;1.00;0.90;;;9.70;95.80;;;;;;5371398;26;20575;-67
2024/04/18 06:56:10;;;;;;;1.57;1.00;;;9.70;95.90;;;;;;5361034;26;20239;-67
2024/04/18 06:58:36;;;;;;;1.77;0.90;;;9.70;95.90;;;;;;5358997;26;20259;-66
2024/04/18 07:01:06;;;;;;;0.83;0.83;;;9.70;95.80;;;;;;5362128;26;20244;-67
2024/04/18 07:03:55;;;;;;;2.27;0.90;;;9.70;95.90;;;;;;5370202;26;20782;-67
2024/04/18 07:06:33;;;;;;;0.70;0.70;;;9.80;95.80;;;;;;5365474;26;20274;-67
2024/04/18 07:09:07;;;;;;;0.70;0.70;;;9.80;95.70;;;;;;5373250;26;20257;-67
2024/04/18 07:11:45;;;;;;;0.83;0.67;;;9.90;95.60;;;;;;5374894;26;20237;-67
2024/04/18 07:14:14;;;;;;;1.03;1.00;;;10.00;95.10;;;;;;5373889;26;20231;-67
2024/04/18 07:16:43;;;;;;;1.17;1.00;;;10.00;95.00;;;;;;5374585;26;20335;-67
2024/04/18 07:19:30;;;;;;;0.73;0.73;;;10.00;95.10;;;;;;5369328;26;20243;-66
2024/04/18 07:21:59;;;;;;;1.20;1.10;;;10.00;95.10;;;;;;5372325;26;20689;-65
2024/04/18 07:24:50;;;;;;;1.20;0.90;;;10.00;95.20;;;;;;5375615;26;20774;-66
2024/04/18 07:27:19;;;;;;;1.10;1.00;;;10.00;95.40;;;;;;5373774;26;20701;-66
2024/04/18 07:29:48;;;;;;;1.20;1.10;;;9.90;96.00;;;;;;5373435;26;20282;-66
2024/04/18 07:32:17;;;;;;;1.90;1.10;;;9.90;96.30;;;;;;5370732;26;20310;-67
2024/04/18 07:34:45;;;;;;;5.03;1.17;;;9.70;96.50;;;;;;5374924;26;20364;-67
2024/04/18 07:37:14;;;;;;;0.90;0.90;;;9.70;96.90;;;;;;5371994;26;20242;-67
2024/04/18 07:39:43;;;;;;;0.73;0.73;;;9.60;97.00;;;;;;5371324;26;20282;-67
2024/04/18 07:42:16;;;;;;;0.83;0.70;;;9.60;97.10;;;;;;5374355;26;20232;-66
2024/04/18 07:44:45;;;;;;;0.70;0.70;;;9.70;97.20;;;;;;5368876;26;20236;-66
2024/04/18 07:47:14;;;;;;;0.63;0.63;;;9.70;97.30;;;;;;5367308;26;20235;-67
2024/04/18 07:49:40;;;;;;;1.07;0.70;;;9.70;97.30;;;;;;5366284;26;20284;-66
2024/04/18 07:52:13;;;;;;;1.30;0.80;;;9.70;97.30;;;;;;5367272;26;20347;-66
2024/04/18 07:54:42;;;;;;;0.93;0.90;;;9.80;97.40;;;;;;5361626;26;20237;-67
2024/04/18 07:57:13;;;;;;;1.10;1.00;;;9.80;97.40;;;;;;5365974;26;20245;-67
2024/04/18 07:59:42;;;;;;;0.90;0.90;;;9.70;97.40;;;;;;5362383;26;20347;-67
2024/04/18 08:02:11;;;;;;;1.07;0.93;;;9.70;97.50;;;;;;5359785;26;20583;-67
2024/04/18 08:04:40;;;;;;;0.73;0.73;;;9.80;97.60;;;;;;5365299;26;20281;-67
2024/04/18 08:07:09;;;;;;;1.00;0.97;;;9.80;97.60;;;;;;5374519;26;20683;-67
2024/04/18 08:09:38;;;;;;;2.63;1.23;;;9.80;97.60;;;;;;5375630;26;20232;-67
2024/04/18 08:12:07;;;;;;;1.43;1.20;;;9.80;97.70;;;;;;5374511;26;20281;-67
2024/04/18 08:14:39;;;;;;;2.97;1.00;;;9.80;97.60;;;;;;5371383;26;20964;-66
2024/04/18 08:17:08;;;;;;;1.10;0.93;;;9.80;97.50;;;;;;5374358;26;20880;-66
2024/04/18 08:19:37;;;;;;;1.50;1.10;;;9.80;97.50;;;;;;5360465;26;20332;-68
2024/04/18 08:22:06;;;;;;;0.80;0.80;;;9.90;97.50;;;;;;5373284;26;20338;-67
2024/04/18 08:24:35;;;;;;;0.90;0.90;;;9.90;97.40;;;;;;5369185;26;20242;-67
2024/04/18 08:27:10;;;;;;;0.53;0.53;;;10.00;96.80;;;;;;5364959;26;20587;-67
2024/04/18 08:29:42;;;;;;;0.70;0.70;;;10.00;96.70;;;;;;5368962;26;20263;-67
2024/04/18 08:32:10;;;;;;;0.90;0.90;;;10.10;96.80;;;;;;5373939;26;20232;-65
2024/04/18 08:34:39;;;;;;;1.03;0.93;;;10.10;96.90;;;;;;5373983;26;20236;-67
2024/04/18 08:37:08;;;;;;;0.80;0.80;;;10.10;96.90;;;;;;5376343;26;20239;-67
2024/04/18 08:39:37;;;;;;;0.70;0.70;;;10.10;96.80;;;;;;5374216;26;20257;-66
2024/04/18 08:42:09;;;;;;;0.50;0.50;;;10.10;96.80;;;;;;5372532;26;20279;-67
2024/04/18 08:44:40;;;;;;;0.40;0.40;;;10.20;96.70;;;;;;5371773;26;20268;-67
2024/04/18 08:47:11;;;;;;;0.50;0.50;;;10.20;96.50;;;;;;5369143;26;20974;-67
2024/04/18 08:49:41;;;;;;;1.33;0.70;;;10.30;96.40;;;;;;5372868;26;20282;-67
2024/04/18 08:52:14;;;;;;;0.90;0.90;;;10.40;96.30;;;;;;5372345;26;20236;-67
2024/04/18 08:54:43;;;;;;;1.73;0.80;;;10.50;96.30;;;;;;5370368;26;20244;-67
2024/04/18 08:57:12;;;;;;;1.50;0.90;;;10.60;96.30;;;;;;5373147;26;20317;-67
2024/04/18 08:59:46;;;;;;;0.60;0.60;;;10.70;96.20;;;;;;5366550;26;20232;-66
2024/04/18 09:02:16;;;;;;;0.90;0.90;;;10.90;96.10;;;;;;5376812;26;20778;-66
2024/04/18 09:04:46;;;;;;;0.70;0.70;;;11.00;95.90;;;;;;5380611;26;20343;-66
2024/04/18 09:07:15;;;;;;;1.00;0.77;;;11.00;95.70;;;;;;5380937;26;20517;-66
2024/04/18 09:09:44;;;;;;;0.73;0.73;;;11.10;95.60;;;;;;5381436;26;20282;-67
2024/04/18 09:12:13;;;;;;;1.37;0.97;;;11.30;95.50;;;;;;5382978;26;20782;-67
2024/04/18 09:14:44;;;;;;;0.80;0.80;;;11.40;95.40;;;;;;5379597;26;20282;-67
2024/04/18 09:17:16;;;;;;;0.60;0.60;;;11.50;95.10;;;;;;5372046;26;20267;-66
2024/04/18 09:19:46;;;;;;;0.50;0.50;;;11.70;95.40;;;;;;5391452;26;20366;-67
2024/04/18 09:22:17;;;;;;;0.77;0.77;;;11.80;94.60;;;;;;5392793;26;20308;-67
2024/04/18 09:24:46;;;;;;;0.80;0.80;;;11.90;94.40;;;;;;5373396;26;20668;-67
2024/04/18 09:27:16;;;;;;;2.77;1.23;;;12.10;94.10;;;;;;5377244;26;20266;-67
2024/04/18 09:29:48;;;;;;;3.33;0.80;;;12.10;93.70;;;;;;5367899;26;20364;-67
2024/04/18 09:32:17;;;;;;;1.07;0.93;;;12.20;93.60;;;;;;5380137;26;20239;-67
2024/04/18 09:34:47;;;;;;;1.53;1.10;;;12.30;93.20;;;;;;5380260;26;20232;-67
2024/04/18 09:37:18;;;;;;;2.20;1.70;;;12.30;92.80;;;;;;5371563;26;21272;-67
2024/04/18 09:39:51;;;;;;;2.00;1.80;;;12.40;92.80;;;;;;5377546;26;20279;-67
2024/04/18 09:42:26;;;;;;;2.03;1.70;;;12.40;92.40;;;;;;5351983;26;20233;-67
2024/04/18 09:45:05;;;;;;;2.90;1.30;;;12.40;92.30;;;;;;5374733;26;20262;-66
2024/04/18 09:47:35;;;;;;;1.47;1.37;;;12.60;92.50;;;;;;5375917;26;20282;-67
2024/04/18 09:50:04;;;;;;;1.00;1.00;;;12.60;92.40;;;;;;5374536;26;20255;-67
2024/04/18 09:52:35;;;;;;;0.80;0.80;;;12.60;92.20;;;;;;5379870;26;20236;-67
2024/04/18 09:55:05;;;;;;;0.80;0.80;;;12.60;92.10;;;;;;5364775;26;20247;-67
2024/04/18 09:57:35;;;;;;;2.53;0.80;;;12.60;92.00;;;;;;5394409;26;20264;-67
2024/04/18 10:00:10;;;;;;;0.87;0.87;;;12.60;92.10;;;;;;5377812;26;20389;-67
2024/04/18 10:02:43;;;;;;;0.67;0.67;;;12.60;92.00;;;;;;5375788;26;20283;-66
2024/04/18 10:05:12;;;;;;;0.50;0.50;;;12.60;91.60;;;;;;5375050;26;20241;-66
2024/04/18 10:07:41;;;;;;;0.60;0.60;;;12.60;91.40;;;;;;5373120;26;20293;-67
2024/04/18 10:10:11;;;;;;;0.70;0.70;;;12.50;91.40;;;;;;5375784;26;20285;-67
2024/04/18 10:12:40;;;;;;;0.60;0.60;;;12.50;91.40;;;;;;5375002;26;20241;-67
2024/04/18 10:15:12;;;;;;;0.57;0.57;;;12.60;91.10;;;;;;5372607;26;20290;-66
2024/04/18 10:17:41;;;;;;;0.50;0.50;;;12.60;91.10;;;;;;5369789;26;20649;-67
2024/04/18 10:20:09;;;;;;;0.77;0.70;;;12.70;91.20;;;;;;5370544;26;20300;-67
2024/04/18 10:22:38;;;;;;;0.60;0.60;;;12.90;91.20;;;;;;5369666;26;20801;-67
2024/04/18 10:25:08;;;;;;;0.70;0.50;;;13.00;91.00;;;;;;5360974;26;20237;-67
2024/04/18 10:27:44;;;;;;;0.50;0.50;;;13.00;91.00;;;;;;5367844;26;20249;-67
2024/04/18 10:30:19;;;;;;;0.80;0.80;;;13.00;91.40;;;;;;5365420;26;20248;-66
2024/04/18 10:32:48;;;;;;;0.63;0.63;;;13.10;90.90;;;;;;5375116;26;20288;-66
2024/04/18 10:35:18;;;;;;;0.60;0.60;;;13.10;90.70;;;;;;5374962;26;20260;-66
2024/04/18 10:37:54;;;;;;;0.90;0.90;;;13.00;90.40;;;;;;5373996;26;20353;-66
2024/04/18 10:40:23;;;;;;;0.80;0.80;;;12.80;90.40;;;;;;5375122;26;20344;-66
2024/04/18 10:42:49;;;;;;;2.97;1.10;;;12.80;90.50;;;;;;5374963;26;20327;-68
2024/04/18 10:45:21;;;;;;;1.57;1.20;;;12.70;90.30;;;;;;5363550;26;20708;-67
2024/04/18 10:47:52;;;;;;;1.83;0.90;;;12.70;90.30;;;;;;5380434;26;20260;-67
2024/04/18 10:50:21;;;;;;;0.90;0.90;;;12.70;90.30;;;;;;5375960;26;20241;-67
2024/04/18 10:52:50;;;;;;;1.00;1.00;;;12.60;89.80;;;;;;5362566;26;20452;-67
2024/04/18 10:55:19;;;;;;;1.67;1.50;;;12.60;90.00;;;;;;5374349;26;20240;-67
2024/04/18 10:57:48;;;;;;;4.10;1.80;;;12.60;90.10;;;;;;5375514;26;20273;-67
2024/04/18 11:00:18;;;;;;;3.23;1.93;;;12.60;90.20;;;;;;5372131;26;20233;-66
2024/04/18 11:02:50;;;;;;;2.37;1.80;;;12.70;90.30;;;;;;5373360;26;20271;-67
2024/04/18 11:05:18;;;;;;;3.33;1.30;;;12.80;90.30;;;;;;5373854;26;20240;-67
2024/04/18 11:07:50;;;;;;;2.30;1.17;;;12.80;90.40;;;;;;5374529;26;20352;-67
2024/04/18 11:10:19;;;;;;;3.63;1.80;;;12.80;89.00;;;;;;5369816;26;20236;-66
2024/04/18 11:12:48;;;;;;;1.73;1.60;;;12.70;89.00;;;;;;5373720;26;20371;-67
2024/04/18 11:15:18;;;;;;;2.73;1.70;;;12.60;89.10;;;;;;5391132;26;20281;-67
2024/04/18 11:17:50;;;;;;;3.03;1.40;;;12.60;89.00;;;;;;5372231;26;20379;-67
2024/04/18 11:20:21;;;;;;;1.40;1.23;;;12.60;88.70;;;;;;5375131;26;20735;-67
2024/04/18 11:22:50;;;;;;;1.37;1.27;;;12.70;89.20;;;;;;5376133;26;20228;-66
2024/04/18 11:25:19;;;;;;;1.50;1.40;;;12.90;89.50;;;;;;5371972;26;20233;-67
2024/04/18 11:28:07;;;;;;;1.10;1.10;;;13.00;88.80;;;;;;5362990;26;20839;-67
2024/04/18 11:30:41;;;;;;;1.00;1.00;;;13.10;88.20;;;;;;5370928;26;20411;-67
2024/04/18 11:33:14;;;;;;;1.27;1.07;;;13.20;87.70;;;;;;5367714;26;20346;-67
2024/04/18 11:35:40;;;;;;;1.17;1.03;;;13.40;87.30;;;;;;5362760;26;20315;-67
2024/04/18 11:38:12;;;;;;;0.90;0.90;;;13.50;87.00;;;;;;5371185;26;20252;-66
2024/04/18 11:40:42;;;;;;;0.93;0.90;;;13.60;86.10;;;;;;5370984;26;20233;-66
2024/04/18 11:43:10;;;;;;;1.57;1.00;;;13.70;86.40;;;;;;5367433;26;20264;-66
2024/04/18 11:45:39;;;;;;;0.90;0.90;;;13.70;85.80;;;;;;5366571;26;20245;-66
2024/04/18 11:48:09;;;;;;;0.93;0.90;;;13.80;86.20;;;;;;5366645;26;20239;-66
2024/04/18 11:50:40;;;;;;;1.43;1.30;;;13.90;86.40;;;;;;5369890;26;20290;-68
2024/04/18 11:53:10;;;;;;;1.73;1.30;;;13.90;85.30;;;;;;5373645;26;20330;-67
2024/04/18 11:55:39;;;;;;;1.30;1.20;;;13.70;85.10;;;;;;5364264;26;20249;-66
2024/04/18 11:58:26;;;;;;;1.13;1.10;;;13.50;85.30;;;;;;5367893;26;20569;-68
2024/04/18 12:00:55;;;;;;;0.83;0.83;;;13.50;85.90;;;;;;5375044;26;20322;-67
2024/04/18 12:03:40;;;;;;;0.80;0.80;;;13.60;86.00;;;;;;5368190;26;20251;-68
2024/04/18 12:06:31;;;;;;;0.70;0.70;;;13.60;86.00;;;;;;5377242;26;20237;-66
2024/04/18 12:09:00;;;;;;;1.00;1.00;;;13.60;85.50;;;;;;5374045;26;20257;-66
2024/04/18 12:11:32;;;;;;;1.83;1.10;;;13.60;85.30;;;;;;5376769;26;20321;-66
2024/04/18 12:14:13;;;;;;;1.10;1.00;;;13.50;84.30;;;;;;5367302;26;20238;-67
2024/04/18 12:16:58;;;;;;;1.00;0.90;;;13.50;83.90;;;;;;5376537;26;20293;-67
2024/04/18 12:19:45;;;;;;;0.93;0.90;;;13.40;84.70;;;;;;5372660;26;20242;-67
2024/04/18 12:22:35;;;;;;;0.70;0.70;;;13.40;83.60;;;;;;5376426;26;20335;-67
2024/04/18 12:25:18;;;;;;;0.70;0.70;;;13.50;83.80;;;;;;5376902;26;20355;-67
2024/04/18 12:27:47;;;;;;;1.93;1.00;;;13.60;83.90;;;;;;5374836;26;20250;-66
2024/04/18 12:30:35;;;;;;;0.90;0.90;;;13.60;82.70;;;;;;5360309;26;20276;-66
2024/04/18 12:33:22;;;;;;;0.80;0.80;;;13.60;80.40;;;;;;5368505;26;20273;-66
2024/04/18 12:35:51;;;;;;;1.00;1.00;;;13.60;80.60;;;;;;5374705;26;20234;-66
2024/04/18 12:38:22;;;;;;;2.37;1.00;;;13.60;80.60;;;;;;5376257;26;20290;-67
2024/04/18 12:41:00;;;;;;;1.03;1.03;;;13.60;79.70;;;;;;5364533;26;20236;-67
2024/04/18 12:43:29;;;;;;;1.00;0.90;;;13.60;79.60;;;;;;5376008;26;20285;-67
2024/04/18 12:46:00;;;;;;;1.00;1.00;;;13.70;79.70;;;;;;5363004;26;20235;-66
2024/04/18 12:48:47;;;;;;;1.53;1.40;;;13.70;79.70;;;;;;5375371;26;20411;-66
2024/04/18 12:51:14;;;;;;;1.20;0.90;;;13.70;79.50;;;;;;5359983;26;20275;-67
2024/04/18 12:53:45;;;;;;;1.30;1.20;;;13.80;79.60;;;;;;5369113;26;20287;-66
2024/04/18 12:56:15;;;;;;;3.17;1.00;;;13.70;79.30;;;;;;5345509;26;20242;-67
2024/04/18 12:58:44;;;;;;;1.57;0.90;;;13.70;80.00;;;;;;5367158;26;21135;-67
2024/04/18 13:01:13;;;;;;;1.30;1.20;;;13.60;80.10;;;;;;5365727;26;20726;-67
2024/04/18 13:03:43;;;;;;;1.00;1.00;;;13.50;80.70;;;;;;5362728;26;20304;-67
2024/04/18 13:06:31;;;;;;;1.47;1.27;;;13.50;81.20;;;;;;5367613;26;20281;-67
2024/04/18 13:09:23;;;;;;;1.10;1.00;;;13.40;81.20;;;;;;5370488;26;20229;-67
2024/04/18 13:11:51;;;;;;;1.00;1.00;;;13.40;81.30;;;;;;5367009;26;20587;-67
2024/04/18 13:14:20;;;;;;;1.20;1.10;;;13.60;81.60;;;;;;5368852;26;20297;-67
2024/04/18 13:16:54;;;;;;;1.53;1.40;;;13.60;81.40;;;;;;5372892;26;20230;-66
2024/04/18 13:19:43;;;;;;;1.73;1.43;;;13.60;81.40;;;;;;5361525;26;20239;-67
2024/04/18 13:22:16;;;;;;;6.53;1.90;;;13.50;81.20;;;;;;5355647;26;20253;-67